createdAt,value
2023-05-21T00:01:42.325Z,2.47
2023-05-21T00:04:08.964Z,1.95
2023-05-21T00:06:36.203Z,1.98
2023-05-21T00:09:04.518Z,1.77
2023-05-21T00:11:31.559Z,2.00
2023-05-21T00:13:58.411Z,1.88
2023-05-21T00:16:25.665Z,1.98
2023-05-21T00:18:54.562Z,1.70
2023-05-21T00:21:25.997Z,2.13
2023-05-21T00:23:56.553Z,1.98
2023-05-21T00:26:26.540Z,1.85
2023-05-21T00:28:53.045Z,2.00
2023-05-21T00:31:19.750Z,2.20
2023-05-21T00:33:46.674Z,1.75
2023-05-21T00:36:15.958Z,1.80
2023-05-21T00:38:44.268Z,2.15
2023-05-21T00:41:11.124Z,2.55
2023-05-21T00:43:40.434Z,2.67
2023-05-21T00:46:08.659Z,1.85
2023-05-21T00:48:35.376Z,2.38
2023-05-21T00:51:01.943Z,2.30
2023-05-21T00:53:28.547Z,2.33
2023-05-21T00:55:55.236Z,2.13
2023-05-21T00:58:21.795Z,2.75
2023-05-21T01:00:49.481Z,2.20
2023-05-21T01:03:16.417Z,2.08
2023-05-21T01:05:45.073Z,2.75
2023-05-21T01:08:12.793Z,2.42
2023-05-21T01:10:39.362Z,2.47
2023-05-21T01:13:05.957Z,2.50
2023-05-21T01:15:32.639Z,2.50
2023-05-21T01:17:59.715Z,2.75
2023-05-21T01:20:27.030Z,2.30
2023-05-21T01:22:55.187Z,2.80
2023-05-21T01:25:23.310Z,2.35
2023-05-21T01:27:50.646Z,2.60
2023-05-21T01:30:18.670Z,2.45
2023-05-21T01:35:32.519Z,2.53
2023-05-21T01:38:09.260Z,2.42
2023-05-21T01:40:59.537Z,2.53
2023-05-21T01:43:29.143Z,2.95
2023-05-21T01:45:57.505Z,2.80
2023-05-21T01:48:27.152Z,2.88
2023-05-21T01:50:55.395Z,2.70
2023-05-21T01:53:22.232Z,2.55
2023-05-21T01:55:48.777Z,3.10
2023-05-21T01:58:18.381Z,2.70
2023-05-21T02:00:47.593Z,2.63
2023-05-21T02:03:17.657Z,2.92
2023-05-21T02:05:45.836Z,2.40
2023-05-21T02:08:13.001Z,2.92
2023-05-21T02:10:40.179Z,2.85
2023-05-21T02:13:06.720Z,2.83
2023-05-21T02:15:34.907Z,2.72
2023-05-21T02:18:01.771Z,2.67
2023-05-21T02:20:28.267Z,2.80
2023-05-21T02:22:54.718Z,2.55
2023-05-21T02:25:21.187Z,2.72
2023-05-21T02:27:47.908Z,3.10
2023-05-21T02:30:15.929Z,3.20
2023-05-21T02:35:12.872Z,2.92
2023-05-21T02:37:40.523Z,2.63
2023-05-21T02:42:34.614Z,2.70
2023-05-21T02:45:01.132Z,2.47
2023-05-21T02:47:27.692Z,2.53
2023-05-21T02:49:55.373Z,2.95
2023-05-21T02:52:24.682Z,2.72
2023-05-21T02:54:51.934Z,3.25
2023-05-21T02:57:18.954Z,3.22
2023-05-21T02:59:46.060Z,2.58
2023-05-21T03:02:12.994Z,3.17
2023-05-21T03:04:45.939Z,2.88
2023-05-21T03:07:18.017Z,3.50
2023-05-21T03:09:44.834Z,2.63
2023-05-21T03:12:11.694Z,2.35
2023-05-21T03:14:38.440Z,2.63
2023-05-21T03:17:06.076Z,2.60
2023-05-21T03:19:36.611Z,2.80
2023-05-21T03:22:04.592Z,2.53
2023-05-21T03:27:01.699Z,2.90
2023-05-21T03:29:28.701Z,2.53
2023-05-21T03:31:55.748Z,2.38
2023-05-21T03:34:22.404Z,3.20
2023-05-21T03:36:49.576Z,3.33
2023-05-21T03:39:16.133Z,2.47
2023-05-21T03:41:44.350Z,2.75
2023-05-21T03:44:11.100Z,3.08
2023-05-21T03:46:37.888Z,3.90
2023-05-21T03:49:04.561Z,3.17
2023-05-21T03:51:31.736Z,3.33
2023-05-21T03:53:59.538Z,3.33
2023-05-21T03:56:26.264Z,2.92
2023-05-21T03:58:53.146Z,3.58
2023-05-21T04:01:20.037Z,3.50
2023-05-21T04:03:47.081Z,3.75
2023-05-21T04:06:14.061Z,3.72
2023-05-21T04:08:40.564Z,3.92
2023-05-21T04:11:07.499Z,3.75
2023-05-21T04:13:33.977Z,4.53
2023-05-21T04:16:00.676Z,3.80
2023-05-21T04:18:27.403Z,3.70
2023-05-21T04:20:54.044Z,3.17
2023-05-21T04:23:23.797Z,3.42
2023-05-21T04:25:51.185Z,3.63
2023-05-21T04:28:20.265Z,3.47
2023-05-21T04:30:48.021Z,2.97
2023-05-21T04:33:18.422Z,4.10
2023-05-21T04:35:49.857Z,3.63
2023-05-21T04:38:20.633Z,3.08
2023-05-21T04:40:50.685Z,3.80
2023-05-21T04:43:17.246Z,3.72
2023-05-21T04:45:43.853Z,3.70
2023-05-21T04:48:10.318Z,4.05
2023-05-21T04:50:36.789Z,4.15
2023-05-21T04:53:03.501Z,3.30
2023-05-21T04:55:29.968Z,4.35
2023-05-21T04:57:57.668Z,3.72
2023-05-21T05:00:26.107Z,4.20
2023-05-21T05:02:52.798Z,4.63
2023-05-21T05:05:19.507Z,4.13
2023-05-21T05:07:48.156Z,4.15
2023-05-21T05:10:14.718Z,4.05
2023-05-21T05:12:41.167Z,4.10
2023-05-21T05:15:08.222Z,4.20
2023-05-21T05:20:02.225Z,3.25
2023-05-21T05:22:28.763Z,3.60
2023-05-21T05:24:55.259Z,4.43
2023-05-21T05:27:21.777Z,4.00
2023-05-21T05:29:48.262Z,4.30
2023-05-21T05:32:15.202Z,4.30
2023-05-21T05:34:42.772Z,4.30
2023-05-21T05:37:09.221Z,4.70
2023-05-21T05:39:37.112Z,4.05
2023-05-21T05:42:03.718Z,5.00
2023-05-21T05:44:30.190Z,4.35
2023-05-21T05:46:56.791Z,4.53
2023-05-21T05:49:23.242Z,4.45
2023-05-21T05:51:49.701Z,4.75
2023-05-21T05:54:16.569Z,4.53
2023-05-21T05:56:43.082Z,4.35
2023-05-21T05:59:09.719Z,4.22
2023-05-21T06:01:36.357Z,5.15
2023-05-21T06:04:02.885Z,4.47
2023-05-21T06:06:29.311Z,4.50
2023-05-21T06:08:56.037Z,4.40
2023-05-21T06:11:23.779Z,4.50
2023-05-21T06:13:50.247Z,4.70
2023-05-21T06:16:16.847Z,4.82
2023-05-21T06:18:44.517Z,4.65
2023-05-21T06:21:13.189Z,4.43
2023-05-21T06:23:39.843Z,4.93
2023-05-21T06:26:06.361Z,4.50
2023-05-21T06:28:33.940Z,4.95
2023-05-21T06:31:00.446Z,4.85
2023-05-21T06:33:28.397Z,5.15
2023-05-21T06:38:21.887Z,5.55
2023-05-21T06:40:48.479Z,5.13
2023-05-21T06:43:15.096Z,4.57
2023-05-21T06:45:41.750Z,5.00
2023-05-21T06:48:08.735Z,6.18
2023-05-21T06:50:35.194Z,5.70
2023-05-21T06:53:01.810Z,4.40
2023-05-21T06:55:28.308Z,5.20
2023-05-21T06:57:54.861Z,5.38
2023-05-21T07:00:21.310Z,5.13
2023-05-21T07:02:47.896Z,5.40
2023-05-21T07:05:14.452Z,5.25
2023-05-21T07:07:40.985Z,4.75
2023-05-21T07:10:08.431Z,5.18
2023-05-21T07:12:35.049Z,5.05
2023-05-21T07:15:01.918Z,5.40
2023-05-21T07:17:28.388Z,5.63
2023-05-21T07:19:54.856Z,6.30
2023-05-21T07:22:21.419Z,5.10
2023-05-21T07:24:48.124Z,6.00
2023-05-21T07:27:25.238Z,5.55
2023-05-21T07:29:52.052Z,5.40
2023-05-21T07:32:18.550Z,5.68
2023-05-21T07:34:45.026Z,5.93
2023-05-21T07:37:11.471Z,5.32
2023-05-21T07:39:38.022Z,5.18
2023-05-21T07:42:05.911Z,5.45
2023-05-21T07:44:32.479Z,4.85
2023-05-21T07:46:58.984Z,5.43
2023-05-21T07:49:25.454Z,5.40
2023-05-21T07:51:51.917Z,5.72
2023-05-21T07:54:19.606Z,5.63
2023-05-21T07:56:46.221Z,4.15
2023-05-21T07:59:14.821Z,5.80
2023-05-21T08:01:41.928Z,5.57
2023-05-21T08:04:08.567Z,4.30
2023-05-21T08:06:37.384Z,6.70
2023-05-21T08:09:06.127Z,5.30
2023-05-21T08:11:33.186Z,5.03
2023-05-21T08:14:00.876Z,5.03
2023-05-21T08:16:27.488Z,5.68
2023-05-21T08:18:53.937Z,5.22
2023-05-21T08:21:20.746Z,5.45
2023-05-21T08:23:49.376Z,5.45
2023-05-21T08:26:18.698Z,5.60
2023-05-21T08:28:45.210Z,5.53
2023-05-21T08:31:12.316Z,5.30
2023-05-21T08:33:38.908Z,4.78
2023-05-21T08:36:06.644Z,4.53
2023-05-21T08:38:34.047Z,6.35
2023-05-21T08:41:01.822Z,4.60
2023-05-21T08:43:29.603Z,4.72
2023-05-21T08:46:00.436Z,4.43
2023-05-21T08:48:27.885Z,4.07
2023-05-21T08:50:54.995Z,4.68
2023-05-21T08:53:28.267Z,4.32
2023-05-21T08:55:56.214Z,4.05
2023-05-21T08:58:22.940Z,4.13
2023-05-21T09:00:49.522Z,4.45
2023-05-21T09:03:16.712Z,3.65
2023-05-21T09:05:44.988Z,4.22
2023-05-21T09:08:19.390Z,3.75
2023-05-21T09:10:51.437Z,4.22
2023-05-21T09:13:19.155Z,3.55
2023-05-21T09:15:46.873Z,3.80
2023-05-21T09:18:14.221Z,3.95
2023-05-21T09:20:40.916Z,4.22
2023-05-21T09:23:16.455Z,4.03
2023-05-21T09:25:47.438Z,4.55
2023-05-21T09:28:15.722Z,4.03
2023-05-21T09:30:52.014Z,4.07
2023-05-21T09:33:26.098Z,4.90
2023-05-21T09:35:52.747Z,3.78
2023-05-21T09:38:22.684Z,4.65
2023-05-21T09:40:49.547Z,4.32
2023-05-21T09:43:16.673Z,4.35
2023-05-21T09:45:54.283Z,4.43
2023-05-21T09:48:42.030Z,3.80
2023-05-21T09:51:16.749Z,4.53
2023-05-21T09:53:57.687Z,4.10
2023-05-21T09:56:27.165Z,5.03
2023-05-21T09:58:55.010Z,4.82
2023-05-21T10:01:21.874Z,4.30
2023-05-21T10:03:53.780Z,3.90
2023-05-21T10:06:21.638Z,4.97
2023-05-21T10:08:51.454Z,4.07
2023-05-21T10:11:21.291Z,4.25
2023-05-21T10:13:52.077Z,5.35
2023-05-21T10:16:19.370Z,6.75
2023-05-21T10:18:47.307Z,5.10
2023-05-21T10:23:41.767Z,5.10
2023-05-21T10:26:09.326Z,4.65
2023-05-21T10:28:36.745Z,5.28
2023-05-21T10:31:04.865Z,5.30
2023-05-21T10:33:34.489Z,4.80
2023-05-21T10:36:02.614Z,4.60
2023-05-21T10:38:30.371Z,4.60
2023-05-21T10:40:58.387Z,4.13
2023-05-21T10:43:38.812Z,5.13
2023-05-21T10:46:39.522Z,5.03
2023-05-21T10:49:26.641Z,5.05
2023-05-21T10:52:16.337Z,5.60
2023-05-21T10:54:46.203Z,5.10
2023-05-21T10:57:37.365Z,5.90
2023-05-21T11:00:06.130Z,5.32
2023-05-21T11:02:34.317Z,4.88
2023-05-21T11:05:01.940Z,4.85
2023-05-21T11:07:51.991Z,5.13
2023-05-21T11:10:39.338Z,5.97
2023-05-21T11:13:13.011Z,4.03
2023-05-21T11:15:57.649Z,4.07
2023-05-21T11:18:36.732Z,4.72
2023-05-21T11:21:17.011Z,4.40
2023-05-21T11:24:05.244Z,5.00
2023-05-21T11:26:58.516Z,5.00
2023-05-21T11:29:55.666Z,5.18
2023-05-21T11:32:24.205Z,4.95
2023-05-21T11:34:51.148Z,4.68
2023-05-21T11:37:25.080Z,4.82
2023-05-21T11:42:34.269Z,4.40
2023-05-21T11:45:04.361Z,3.80
2023-05-21T11:47:32.343Z,4.88
2023-05-21T11:50:01.437Z,4.80
2023-05-21T11:52:31.909Z,4.75
2023-05-21T11:54:59.741Z,4.22
2023-05-21T12:00:01.183Z,4.97
2023-05-21T12:02:31.422Z,4.40
2023-05-21T12:05:01.035Z,4.93
2023-05-21T12:07:29.722Z,4.47
2023-05-21T12:09:56.819Z,5.32
2023-05-21T12:12:25.951Z,4.85
2023-05-21T12:14:54.873Z,5.38
2023-05-21T12:17:24.122Z,4.60
2023-05-21T12:19:52.934Z,5.65
2023-05-21T12:22:20.234Z,4.88
2023-05-21T12:24:48.378Z,5.15
2023-05-21T12:27:16.873Z,4.50
2023-05-21T12:29:45.519Z,5.38
2023-05-21T12:32:15.920Z,5.65
2023-05-21T12:34:46.768Z,5.25
2023-05-21T12:37:22.826Z,5.18
2023-05-21T12:39:51.232Z,5.68
2023-05-21T12:42:26.172Z,4.25
2023-05-21T12:44:53.470Z,5.13
2023-05-21T12:47:23.650Z,4.38
2023-05-21T12:49:53.063Z,4.35
2023-05-21T12:52:21.572Z,3.85
2023-05-21T12:54:52.781Z,4.28
2023-05-21T12:57:21.252Z,5.07
2023-05-21T12:59:58.524Z,4.22
2023-05-21T13:02:41.657Z,4.78
2023-05-21T13:05:11.182Z,4.20
2023-05-21T13:07:39.378Z,4.05
2023-05-21T13:10:09.060Z,4.10
2023-05-21T13:12:36.120Z,3.67
2023-05-21T13:15:04.795Z,4.03
2023-05-21T13:17:32.782Z,3.72
2023-05-21T13:20:12.883Z,3.67
2023-05-21T13:25:11.366Z,3.67
2023-05-21T13:27:39.191Z,3.25
2023-05-21T13:32:34.496Z,3.30
2023-05-21T13:35:01.105Z,3.55
2023-05-21T13:37:28.020Z,3.22
2023-05-21T13:39:54.682Z,3.42
2023-05-21T13:42:21.287Z,3.78
2023-05-21T13:44:48.149Z,3.17
2023-05-21T13:47:15.207Z,3.30
2023-05-21T13:49:44.319Z,3.13
2023-05-21T13:52:12.134Z,3.50
2023-05-21T13:57:05.111Z,2.97
2023-05-21T13:59:33.658Z,3.33
2023-05-21T14:02:01.483Z,2.88
2023-05-21T14:04:28.151Z,3.33
2023-05-21T14:06:55.042Z,3.83
2023-05-21T14:09:23.304Z,3.85
2023-05-21T14:11:49.789Z,3.80
2023-05-21T14:14:19.186Z,3.30
2023-05-21T14:16:47.199Z,3.38
2023-05-21T14:19:14.195Z,3.47
2023-05-21T14:21:41.549Z,3.78
2023-05-21T14:24:08.338Z,4.07
2023-05-21T14:26:36.728Z,3.75
2023-05-21T14:29:03.216Z,3.58
2023-05-21T14:31:29.891Z,3.50
2023-05-21T14:33:56.470Z,3.85
2023-05-21T14:36:23.027Z,3.05
2023-05-21T14:38:49.583Z,3.30
2023-05-21T14:41:16.010Z,3.50
2023-05-21T14:43:42.614Z,3.42
2023-05-21T14:46:10.927Z,3.22
2023-05-21T14:48:37.352Z,3.70
2023-05-21T14:51:03.948Z,3.60
2023-05-21T14:53:30.529Z,3.38
2023-05-21T14:55:57.272Z,5.13
2023-05-21T14:58:23.779Z,4.25
2023-05-21T15:00:50.344Z,3.72
2023-05-21T15:03:17.229Z,4.25
2023-05-21T15:05:43.780Z,3.33
2023-05-21T15:08:13.311Z,4.28
2023-05-21T15:10:39.954Z,3.75
2023-05-21T15:13:06.549Z,4.07
2023-05-21T15:15:33.073Z,4.90
2023-05-21T15:17:59.587Z,3.40
2023-05-21T15:20:26.212Z,3.92
2023-05-21T15:22:59.075Z,3.83
2023-05-21T15:25:36.462Z,3.67
2023-05-21T15:28:03.483Z,3.90
2023-05-21T15:30:30.001Z,3.90
2023-05-21T15:32:56.474Z,3.90
2023-05-21T15:35:23.071Z,3.67
2023-05-21T15:37:49.794Z,4.30
2023-05-21T15:40:16.311Z,3.75
2023-05-21T15:42:42.955Z,3.92
2023-05-21T15:45:09.819Z,4.15
2023-05-21T15:47:36.698Z,4.40
2023-05-21T15:50:03.409Z,4.32
2023-05-21T15:52:30.359Z,4.22
2023-05-21T15:54:57.015Z,3.40
2023-05-21T15:57:23.595Z,4.55
2023-05-21T15:59:50.773Z,4.20
2023-05-21T16:02:17.234Z,4.80
2023-05-21T16:04:46.704Z,3.85
2023-05-21T16:07:13.179Z,3.80
2023-05-21T16:09:39.617Z,4.00
2023-05-21T16:12:06.466Z,4.30
2023-05-21T16:14:33.076Z,4.90
2023-05-21T16:16:59.643Z,4.70
2023-05-21T16:19:26.258Z,4.43
2023-05-21T16:21:52.723Z,4.47
2023-05-21T16:24:19.584Z,4.53
2023-05-21T16:26:49.571Z,4.82
2023-05-21T16:29:16.092Z,5.63
2023-05-21T16:31:42.718Z,5.50
2023-05-21T16:34:09.247Z,3.80
2023-05-21T16:36:37.422Z,4.75
2023-05-21T16:39:04.323Z,4.55
2023-05-21T16:41:30.873Z,4.68
2023-05-21T16:43:57.328Z,5.60
2023-05-21T16:46:23.912Z,5.35
2023-05-21T16:48:50.627Z,4.47
2023-05-21T16:51:17.300Z,4.97
2023-05-21T16:53:43.947Z,4.57
2023-05-21T16:56:10.549Z,5.28
2023-05-21T16:58:37.055Z,4.90
2023-05-21T17:01:06.302Z,4.45
2023-05-21T17:03:33.024Z,5.18
2023-05-21T17:06:02.046Z,6.00
2023-05-21T17:08:28.547Z,5.30
2023-05-21T17:10:56.012Z,5.82
2023-05-21T17:13:23.394Z,5.55
2023-05-21T17:15:53.331Z,6.40
2023-05-21T17:18:19.946Z,6.43
2023-05-21T17:20:46.502Z,5.43
2023-05-21T17:23:13.139Z,5.85
2023-05-21T17:25:40.325Z,5.90
2023-05-21T17:28:07.186Z,6.28
2023-05-21T17:30:33.893Z,5.82
2023-05-21T17:33:02.166Z,7.28
2023-05-21T17:35:28.994Z,7.00
2023-05-21T17:37:55.575Z,7.75
2023-05-21T17:40:24.549Z,7.82
2023-05-21T17:42:52.304Z,7.22
2023-05-21T17:45:19.289Z,7.22
2023-05-21T17:47:46.882Z,7.45
2023-05-21T17:50:13.665Z,8.55
2023-05-21T17:52:40.306Z,7.53
2023-05-21T17:55:07.850Z,7.50
2023-05-21T17:57:35.847Z,8.27
2023-05-21T18:00:04.909Z,8.75
2023-05-21T18:02:31.804Z,7.50
2023-05-21T18:04:59.278Z,8.57
2023-05-21T18:07:25.873Z,9.55
2023-05-21T18:09:52.415Z,8.35
2023-05-21T18:12:19.047Z,8.48
2023-05-21T18:14:47.867Z,8.90
2023-05-21T18:17:14.295Z,9.18
2023-05-21T18:19:40.780Z,8.95
2023-05-21T18:22:07.831Z,9.13
2023-05-21T18:24:34.520Z,8.60
2023-05-21T18:27:01.022Z,9.73
2023-05-21T18:29:27.489Z,9.93
2023-05-21T18:31:54.119Z,9.32
2023-05-21T18:34:23.561Z,9.73
2023-05-21T18:36:50.097Z,9.50
2023-05-21T18:39:16.622Z,8.57
2023-05-21T18:41:43.510Z,9.25
2023-05-21T18:44:10.020Z,9.85
2023-05-21T18:46:37.766Z,8.45
2023-05-21T18:51:31.749Z,9.45
2023-05-21T18:53:58.676Z,8.20
2023-05-21T18:56:25.841Z,8.55
2023-05-21T18:58:52.609Z,9.02
2023-05-21T19:01:19.208Z,8.40
2023-05-21T19:03:45.869Z,9.10
2023-05-21T19:06:12.538Z,8.88
2023-05-21T19:08:40.433Z,10.18
2023-05-21T19:13:34.559Z,7.50
2023-05-21T19:16:02.230Z,6.72
2023-05-21T19:18:32.408Z,8.98
2023-05-21T19:21:00.431Z,9.02
2023-05-21T19:25:53.659Z,7.60
2023-05-21T19:28:20.367Z,9.43
2023-05-21T19:30:46.971Z,9.23
2023-05-21T19:33:16.649Z,10.10
2023-05-21T19:35:43.385Z,9.05
2023-05-21T19:38:11.004Z,8.80
2023-05-21T19:40:38.227Z,9.30
2023-05-21T19:43:04.889Z,9.25
2023-05-21T19:45:31.557Z,9.48
2023-05-21T19:47:59.555Z,9.68
2023-05-21T19:52:57.169Z,9.70
2023-05-21T19:55:24.493Z,8.15
2023-05-21T19:57:51.067Z,9.18
2023-05-21T20:02:56.572Z,9.70
2023-05-21T20:05:23.362Z,9.40
2023-05-21T20:07:50.159Z,9.80
2023-05-21T20:10:16.887Z,9.27
2023-05-21T20:12:43.798Z,9.07
2023-05-21T20:15:13.275Z,9.30
2023-05-21T20:17:42.902Z,9.00
2023-05-21T20:20:12.189Z,9.27
2023-05-21T20:22:38.768Z,9.18
2023-05-21T20:25:08.430Z,9.60
2023-05-21T20:27:35.768Z,9.43
2023-05-21T20:30:02.745Z,10.27
2023-05-21T20:32:31.816Z,10.25
2023-05-21T20:35:03.316Z,9.82
2023-05-21T20:37:32.562Z,9.45
2023-05-21T20:39:59.993Z,10.45
2023-05-21T20:42:28.679Z,11.18
2023-05-21T20:44:59.021Z,11.65
2023-05-21T20:47:29.922Z,9.52
2023-05-21T20:49:57.867Z,10.18
2023-05-21T20:52:29.099Z,11.43
2023-05-21T20:54:56.692Z,10.13
2023-05-21T20:57:24.181Z,10.32
2023-05-21T20:59:53.698Z,10.45
2023-05-21T21:02:23.682Z,10.93
2023-05-21T21:04:56.516Z,10.48
2023-05-21T21:07:23.503Z,11.30
2023-05-21T21:09:50.372Z,12.98
2023-05-21T21:12:26.657Z,9.63
2023-05-21T21:14:54.606Z,12.80
2023-05-21T21:17:27.624Z,11.13
2023-05-21T21:19:54.461Z,10.60
2023-05-21T21:22:21.605Z,12.25
2023-05-21T21:24:48.939Z,11.35
2023-05-21T21:27:15.988Z,11.30
2023-05-21T21:29:46.451Z,12.18
2023-05-21T21:32:13.586Z,11.05
2023-05-21T21:34:43.328Z,11.57
2023-05-21T21:37:16.436Z,12.32
2023-05-21T21:39:43.434Z,11.38
2023-05-21T21:42:10.602Z,12.13
2023-05-21T21:44:47.894Z,12.73
2023-05-21T21:47:14.905Z,11.68
2023-05-21T21:49:43.925Z,12.35
2023-05-21T21:52:12.558Z,12.00
2023-05-21T21:54:39.310Z,11.85
2023-05-21T21:57:06.349Z,12.88
2023-05-21T21:59:34.094Z,12.35
2023-05-21T22:02:01.180Z,12.30
2023-05-21T22:04:28.161Z,12.57
2023-05-21T22:06:58.233Z,13.88
2023-05-21T22:09:25.284Z,12.90
2023-05-21T22:11:53.495Z,12.90
2023-05-21T22:14:20.336Z,13.27
2023-05-21T22:16:47.907Z,13.63
2023-05-21T22:19:17.994Z,13.50
2023-05-21T22:21:48.005Z,13.95
2023-05-21T22:24:30.773Z,13.02
2023-05-21T22:26:58.828Z,14.35
2023-05-21T22:29:25.602Z,13.98
2023-05-21T22:31:54.974Z,12.35
2023-05-21T22:34:23.191Z,14.27
2023-05-21T22:36:52.349Z,15.90
2023-05-21T22:39:19.214Z,14.57
2023-05-21T22:41:46.068Z,13.77
2023-05-21T22:44:13.345Z,15.75
2023-05-21T22:46:42.190Z,14.75
2023-05-21T22:49:10.867Z,14.65
2023-05-21T22:51:38.020Z,13.63
2023-05-21T22:54:05.224Z,14.80
2023-05-21T22:56:35.177Z,13.73
2023-05-21T22:59:02.110Z,14.02
2023-05-21T23:01:29.485Z,14.52
2023-05-21T23:04:01.436Z,15.07
2023-05-21T23:06:28.635Z,15.23
2023-05-21T23:08:59.263Z,14.57
2023-05-21T23:11:29.415Z,14.43
2023-05-21T23:13:56.553Z,15.20
2023-05-21T23:16:25.970Z,14.88
2023-05-21T23:18:54.568Z,16.08
2023-05-21T23:21:21.908Z,16.45
2023-05-21T23:23:48.976Z,15.45
2023-05-21T23:26:16.084Z,15.80
2023-05-21T23:28:45.932Z,15.13
2023-05-21T23:31:15.449Z,16.23
2023-05-21T23:33:45.016Z,15.23
2023-05-21T23:36:11.953Z,15.80
2023-05-21T23:38:41.780Z,15.13
2023-05-21T23:41:08.829Z,15.07
2023-05-21T23:43:37.998Z,14.60
2023-05-21T23:46:07.456Z,14.45
2023-05-21T23:48:35.879Z,15.65
2023-05-21T23:51:03.047Z,14.52
2023-05-21T23:53:36.021Z,14.43
2023-05-21T23:56:05.571Z,14.82
2023-05-21T23:58:32.485Z,13.43
